RYR3343 LIPQ-LKPR
Flight info
| Callsign | RYR3343 |
|---|---|
| Flight time | 0h 50m |
| Altitude | 33000 |
| Route | RIFEN DCT LIMRA DCT BUDWA DCT APRAQ |
| Aircraft | B738/M-SDE2E3FGHIRWXY/LB1 |
Departure
| Time | 2026-05-08 14:35 |
|---|---|
| Airport | Trieste Airport (LIPQ) |
Arrival
| Time | 2026-05-08 15:25 |
|---|---|
| Airport | Václav Havel Airport Prague (LKPR) |
| Time | Latitude | Longitude | Altitude | Speed | Heading |
|---|---|---|---|---|---|
| 2026-05-08 14:05 | 45.82205 | 13.48388 | 31 ft | 0 kts | 217° |
| 2026-05-08 14:28 | 45.82204 | 13.48387 | 31 ft | 0 kts | 221° |
| 2026-05-08 14:28 | 45.82209 | 13.48373 | 31 ft | 2 kts | 353° |
| 2026-05-08 14:29 | 45.82226 | 13.48374 | 31 ft | 2 kts | 2° |
| 2026-05-08 14:29 | 45.82249 | 13.48377 | 31 ft | 4 kts | 17° |
| 2026-05-08 14:29 | 45.82272 | 13.48421 | 32 ft | 7 kts | 74° |
| 2026-05-08 14:29 | 45.82285 | 13.48515 | 32 ft | 10 kts | 81° |
| 2026-05-08 14:30 | 45.82323 | 13.48574 | 33 ft | 8 kts | 9° |
| 2026-05-08 14:30 | 45.82377 | 13.48572 | 33 ft | 7 kts | 358° |
| 2026-05-08 14:30 | 45.82429 | 13.48571 | 33 ft | 7 kts | 0° |
| 2026-05-08 14:30 | 45.82490 | 13.48572 | 33 ft | 9 kts | 0° |
| 2026-05-08 14:31 | 45.82558 | 13.48571 | 33 ft | 10 kts | 360° |
| 2026-05-08 14:31 | 45.82638 | 13.48573 | 33 ft | 11 kts | 2° |
| 2026-05-08 14:31 | 45.82707 | 13.48575 | 34 ft | 9 kts | 360° |
| 2026-05-08 14:32 | 45.82778 | 13.48553 | 35 ft | 2 kts | 290° |
| 2026-05-08 14:32 | 45.82779 | 13.48532 | 35 ft | 0 kts | 269° |
| 2026-05-08 14:34 | 45.82779 | 13.48513 | 35 ft | 7 kts | 269° |
| 2026-05-08 14:34 | 45.82781 | 13.48095 | 38 ft | 76 kts | 269° |
| 2026-05-08 14:34 | 45.82785 | 13.47027 | 36 ft | 135 kts | 269° |
| 2026-05-08 14:35 | 45.82789 | 13.45483 | 231 ft | 164 kts | 270° |
| 2026-05-08 14:35 | 45.82805 | 13.43876 | 833 ft | 166 kts | 271° |
| 2026-05-08 14:35 | 45.82830 | 13.42201 | 1353 ft | 175 kts | 271° |
| 2026-05-08 14:35 | 45.82851 | 13.40386 | 1798 ft | 187 kts | 271° |
| 2026-05-08 14:36 | 45.82859 | 13.38423 | 2128 ft | 206 kts | 270° |
| 2026-05-08 14:36 | 45.82862 | 13.37044 | 2425 ft | 214 kts | 270° |
| 2026-05-08 14:36 | 45.82864 | 13.36325 | 2569 ft | 219 kts | 270° |
| 2026-05-08 14:37 | 45.82876 | 13.33260 | 3106 ft | 241 kts | 270° |
| 2026-05-08 14:37 | 45.83726 | 13.26668 | 4428 ft | 270 kts | 306° |
| 2026-05-08 14:37 | 45.85070 | 13.24787 | 5091 ft | 273 kts | 329° |
| 2026-05-08 14:37 | 45.86838 | 13.23940 | 5768 ft | 274 kts | 356° |
| 2026-05-08 14:38 | 45.88725 | 13.24165 | 6443 ft | 276 kts | 15° |
| 2026-05-08 14:38 | 45.90474 | 13.25279 | 7107 ft | 279 kts | 37° |
| 2026-05-08 14:38 | 45.91730 | 13.27364 | 7746 ft | 283 kts | 64° |
| 2026-05-08 14:38 | 45.92250 | 13.30089 | 8446 ft | 286 kts | 86° |
| 2026-05-08 14:39 | 45.92272 | 13.31020 | 8661 ft | 288 kts | 92° |
| 2026-05-08 14:40 | 45.88872 | 13.39040 | 10747 ft | 308 kts | 134° |
| 2026-05-08 14:40 | 45.85786 | 13.43724 | 11558 ft | 339 kts | 130° |
| 2026-05-08 14:40 | 45.85297 | 13.44605 | 11684 ft | 345 kts | 126° |
| 2026-05-08 14:41 | 45.84184 | 13.47693 | 12212 ft | 356 kts | 106° |
| 2026-05-08 14:41 | 45.83943 | 13.52401 | 13181 ft | 361 kts | 82° |
| 2026-05-08 14:41 | 45.88586 | 13.63493 | 15895 ft | 375 kts | 30° |
| 2026-05-08 14:42 | 45.90913 | 13.65124 | 16587 ft | 380 kts | 19° |
| 2026-05-08 14:42 | 45.93488 | 13.65856 | 17294 ft | 382 kts | 2° |
| 2026-05-08 14:42 | 45.96155 | 13.65834 | 17988 ft | 385 kts | 357° |
| 2026-05-08 14:42 | 45.98834 | 13.65769 | 18642 ft | 390 kts | 1° |
| 2026-05-08 14:43 | 46.01566 | 13.66245 | 19284 ft | 396 kts | 10° |
| 2026-05-08 14:43 | 46.04247 | 13.67178 | 19889 ft | 401 kts | 14° |
| 2026-05-08 14:43 | 46.06952 | 13.68308 | 20472 ft | 406 kts | 15° |
| 2026-05-08 14:43 | 46.09635 | 13.69482 | 21036 ft | 412 kts | 15° |
| 2026-05-08 14:44 | 46.12406 | 13.70692 | 21615 ft | 416 kts | 15° |
| 2026-05-08 14:44 | 46.15188 | 13.71885 | 22222 ft | 419 kts | 15° |
| 2026-05-08 14:44 | 46.17982 | 13.73061 | 22735 ft | 425 kts | 14° |
| 2026-05-08 14:44 | 46.20850 | 13.74248 | 23280 ft | 429 kts | 14° |
| 2026-05-08 14:45 | 46.23719 | 13.75421 | 23845 ft | 432 kts | 14° |
| 2026-05-08 14:45 | 46.26609 | 13.76594 | 24346 ft | 437 kts | 14° |
| 2026-05-08 14:45 | 46.29548 | 13.77780 | 24851 ft | 441 kts | 14° |
| 2026-05-08 14:45 | 46.32490 | 13.78964 | 25380 ft | 445 kts | 13° |
| 2026-05-08 14:46 | 46.35522 | 13.80182 | 25840 ft | 450 kts | 13° |
| 2026-05-08 14:46 | 46.38563 | 13.81403 | 26298 ft | 454 kts | 13° |
| 2026-05-08 14:46 | 46.41608 | 13.82630 | 26774 ft | 457 kts | 14° |
| 2026-05-08 14:46 | 46.44650 | 13.83857 | 27224 ft | 461 kts | 14° |
| 2026-05-08 14:47 | 46.47766 | 13.85117 | 27610 ft | 466 kts | 13° |
| 2026-05-08 14:47 | 46.50895 | 13.86381 | 28007 ft | 471 kts | 13° |
| 2026-05-08 14:47 | 46.54046 | 13.87657 | 28421 ft | 475 kts | 13° |
| 2026-05-08 14:47 | 46.57266 | 13.88961 | 28875 ft | 478 kts | 13° |
| 2026-05-08 14:48 | 46.60450 | 13.90253 | 29276 ft | 481 kts | 13° |
| 2026-05-08 14:48 | 46.63677 | 13.91567 | 29718 ft | 483 kts | 13° |
| 2026-05-08 14:48 | 46.66884 | 13.92877 | 30462 ft | 478 kts | 13° |
| 2026-05-08 14:48 | 46.70087 | 13.94188 | 31196 ft | 474 kts | 13° |
| 2026-05-08 14:49 | 46.73222 | 13.95473 | 31821 ft | 471 kts | 13° |
| 2026-05-08 14:49 | 46.76345 | 13.96754 | 32370 ft | 470 kts | 12° |
| 2026-05-08 14:49 | 46.79526 | 13.98058 | 32939 ft | 468 kts | 12° |
| 2026-05-08 14:49 | 46.82633 | 13.99333 | 33080 ft | 464 kts | 12° |
| 2026-05-08 14:50 | 46.88748 | 14.01852 | 33077 ft | 452 kts | 12° |
| 2026-05-08 14:50 | 46.94791 | 14.04335 | 33088 ft | 454 kts | 12° |
| 2026-05-08 14:51 | 47.00870 | 14.06837 | 33078 ft | 455 kts | 12° |
| 2026-05-08 14:51 | 47.06943 | 14.09342 | 33076 ft | 455 kts | 12° |
| 2026-05-08 14:52 | 47.15809 | 14.13016 | 33067 ft | 455 kts | 12° |
| 2026-05-08 14:53 | 47.21928 | 14.15560 | 33060 ft | 453 kts | 12° |
| 2026-05-08 14:53 | 47.27951 | 14.18073 | 33058 ft | 455 kts | 12° |
| 2026-05-08 14:54 | 47.34054 | 14.20624 | 33063 ft | 456 kts | 12° |
| 2026-05-08 14:54 | 47.40119 | 14.23164 | 33058 ft | 455 kts | 12° |
| 2026-05-08 14:55 | 47.46209 | 14.25720 | 33057 ft | 455 kts | 12° |
| 2026-05-08 14:55 | 47.52275 | 14.28273 | 33050 ft | 455 kts | 12° |
| 2026-05-08 14:56 | 47.58330 | 14.30830 | 33050 ft | 456 kts | 12° |
| 2026-05-08 14:56 | 47.64415 | 14.33404 | 33038 ft | 457 kts | 11° |
| 2026-05-08 14:57 | 47.70520 | 14.35994 | 33033 ft | 456 kts | 11° |
| 2026-05-08 14:57 | 47.76586 | 14.38571 | 33035 ft | 456 kts | 11° |
| 2026-05-08 14:58 | 47.82668 | 14.41161 | 33029 ft | 456 kts | 11° |
| 2026-05-08 14:58 | 47.88785 | 14.43385 | 33021 ft | 451 kts | 1° |
| 2026-05-08 14:58 | 47.91864 | 14.43518 | 33025 ft | 441 kts | 348° |
| 2026-05-08 14:59 | 47.94846 | 14.42637 | 33028 ft | 433 kts | 336° |
| 2026-05-08 14:59 | 48.03153 | 14.38059 | 33023 ft | 426 kts | 331° |
| 2026-05-08 15:00 | 48.05006 | 14.36949 | 33022 ft | 424 kts | 331° |
| 2026-05-08 15:00 | 48.14102 | 14.31526 | 33026 ft | 424 kts | 331° |
| 2026-05-08 15:01 | 48.19569 | 14.28312 | 33029 ft | 423 kts | 331° |
| 2026-05-08 15:01 | 48.25135 | 14.25370 | 33025 ft | 433 kts | 340° |
| 2026-05-08 15:02 | 48.31115 | 14.24268 | 33038 ft | 439 kts | 351° |
| 2026-05-08 15:02 | 48.37261 | 14.23939 | 33047 ft | 440 kts | 351° |
| 2026-05-08 15:03 | 48.43310 | 14.23637 | 33052 ft | 441 kts | 351° |
| 2026-05-08 15:03 | 48.49432 | 14.23214 | 33051 ft | 438 kts | 350° |
| 2026-05-08 15:04 | 48.55436 | 14.22718 | 32922 ft | 441 kts | 349° |
| 2026-05-08 15:04 | 48.58549 | 14.22424 | 32518 ft | 456 kts | 349° |
| 2026-05-08 15:04 | 48.61696 | 14.22125 | 32007 ft | 456 kts | 349° |
| 2026-05-08 15:05 | 48.64845 | 14.21834 | 31479 ft | 452 kts | 350° |
| 2026-05-08 15:05 | 48.67943 | 14.21551 | 30961 ft | 448 kts | 350° |
| 2026-05-08 15:05 | 48.71056 | 14.21267 | 30434 ft | 443 kts | 350° |
| 2026-05-08 15:05 | 48.74091 | 14.20988 | 29938 ft | 440 kts | 350° |
| 2026-05-08 15:06 | 48.77096 | 14.20709 | 29438 ft | 436 kts | 350° |
| 2026-05-08 15:06 | 48.80121 | 14.20427 | 28926 ft | 432 kts | 350° |
| 2026-05-08 15:06 | 48.83075 | 14.20148 | 28418 ft | 428 kts | 350° |
| 2026-05-08 15:06 | 48.86076 | 14.19865 | 27905 ft | 425 kts | 351° |
| 2026-05-08 15:07 | 48.88972 | 14.19590 | 27409 ft | 421 kts | 351° |
| 2026-05-08 15:07 | 48.91895 | 14.19313 | 26915 ft | 417 kts | 351° |
| 2026-05-08 15:07 | 48.94771 | 14.19038 | 26422 ft | 413 kts | 351° |
| 2026-05-08 15:07 | 48.97597 | 14.18768 | 25934 ft | 409 kts | 352° |
| 2026-05-08 15:08 | 49.00413 | 14.18498 | 25445 ft | 405 kts | 352° |
| 2026-05-08 15:08 | 49.03213 | 14.18231 | 24959 ft | 401 kts | 352° |
| 2026-05-08 15:08 | 49.05991 | 14.17964 | 24481 ft | 396 kts | 352° |
| 2026-05-08 15:08 | 49.08702 | 14.17702 | 24013 ft | 392 kts | 353° |
| 2026-05-08 15:09 | 49.11404 | 14.17442 | 23552 ft | 388 kts | 353° |
| 2026-05-08 15:09 | 49.14093 | 14.17183 | 23084 ft | 383 kts | 353° |
| 2026-05-08 15:09 | 49.16719 | 14.16930 | 22635 ft | 379 kts | 353° |
| 2026-05-08 15:09 | 49.19316 | 14.16680 | 22188 ft | 374 kts | 353° |
| 2026-05-08 15:10 | 49.21915 | 14.16429 | 21733 ft | 370 kts | 353° |
| 2026-05-08 15:10 | 49.24458 | 14.16184 | 21303 ft | 367 kts | 353° |
| 2026-05-08 15:10 | 49.26976 | 14.15940 | 20871 ft | 364 kts | 353° |
| 2026-05-08 15:10 | 49.29489 | 14.15696 | 20430 ft | 362 kts | 353° |
| 2026-05-08 15:11 | 49.32013 | 14.15451 | 19986 ft | 359 kts | 353° |
| 2026-05-08 15:11 | 49.34468 | 14.15406 | 19487 ft | 359 kts | 3° |
| 2026-05-08 15:11 | 49.36893 | 14.16453 | 18974 ft | 363 kts | 24° |
| 2026-05-08 15:11 | 49.39032 | 14.18454 | 18497 ft | 361 kts | 31° |
| 2026-05-08 15:12 | 49.41123 | 14.20577 | 17977 ft | 359 kts | 31° |
| 2026-05-08 15:12 | 49.43192 | 14.22671 | 17471 ft | 357 kts | 31° |
| 2026-05-08 15:12 | 49.45242 | 14.24742 | 17006 ft | 354 kts | 31° |
| 2026-05-08 15:12 | 49.47295 | 14.26819 | 16513 ft | 351 kts | 31° |
| 2026-05-08 15:13 | 49.49305 | 14.28859 | 16194 ft | 344 kts | 31° |
| 2026-05-08 15:13 | 49.51247 | 14.30837 | 16101 ft | 330 kts | 31° |
| 2026-05-08 15:13 | 49.53130 | 14.32760 | 15840 ft | 322 kts | 31° |
| 2026-05-08 15:13 | 49.54996 | 14.34663 | 15017 ft | 327 kts | 31° |
| 2026-05-08 15:14 | 49.56906 | 14.36607 | 13818 ft | 338 kts | 31° |
| 2026-05-08 15:14 | 49.58865 | 14.38605 | 13095 ft | 332 kts | 31° |
| 2026-05-08 15:14 | 49.60722 | 14.40508 | 12754 ft | 317 kts | 31° |
| 2026-05-08 15:14 | 49.62511 | 14.42345 | 12397 ft | 303 kts | 31° |
| 2026-05-08 15:15 | 49.64235 | 14.44117 | 11979 ft | 293 kts | 31° |
| 2026-05-08 15:15 | 49.65916 | 14.45843 | 11397 ft | 291 kts | 31° |
| 2026-05-08 15:15 | 49.67592 | 14.47562 | 10829 ft | 288 kts | 31° |
| 2026-05-08 15:15 | 49.69243 | 14.49258 | 10324 ft | 285 kts | 31° |
| 2026-05-08 15:16 | 49.70880 | 14.50942 | 10008 ft | 281 kts | 31° |
| 2026-05-08 15:16 | 49.72514 | 14.52623 | 9773 ft | 284 kts | 31° |
| 2026-05-08 15:16 | 49.74130 | 14.54288 | 9407 ft | 280 kts | 31° |
| 2026-05-08 15:16 | 49.75756 | 14.55954 | 9074 ft | 276 kts | 28° |
| 2026-05-08 15:17 | 49.77506 | 14.56972 | 8537 ft | 270 kts | 2° |
| 2026-05-08 15:17 | 49.79339 | 14.56881 | 8292 ft | 256 kts | 351° |
| 2026-05-08 15:17 | 49.81087 | 14.56560 | 8167 ft | 247 kts | 352° |
| 2026-05-08 15:17 | 49.82746 | 14.56377 | 8069 ft | 237 kts | 355° |
| 2026-05-08 15:18 | 49.84358 | 14.56317 | 7987 ft | 225 kts | 357° |
| 2026-05-08 15:18 | 49.85907 | 14.56303 | 7654 ft | 223 kts | 358° |
| 2026-05-08 15:18 | 49.87408 | 14.56297 | 7430 ft | 210 kts | 358° |
| 2026-05-08 15:18 | 49.88874 | 14.56289 | 6994 ft | 210 kts | 358° |
| 2026-05-08 15:19 | 49.90320 | 14.56276 | 6560 ft | 209 kts | 358° |
| 2026-05-08 15:19 | 49.91780 | 14.56261 | 6150 ft | 208 kts | 358° |
| 2026-05-08 15:19 | 49.93208 | 14.56246 | 5720 ft | 207 kts | 358° |
| 2026-05-08 15:19 | 49.94635 | 14.56102 | 5309 ft | 205 kts | 345° |
| 2026-05-08 15:20 | 49.95837 | 14.55028 | 4997 ft | 197 kts | 313° |
| 2026-05-08 15:20 | 49.96666 | 14.53425 | 4813 ft | 191 kts | 308° |
| 2026-05-08 15:20 | 49.97477 | 14.51804 | 4648 ft | 192 kts | 309° |
| 2026-05-08 15:20 | 49.98297 | 14.50165 | 4446 ft | 191 kts | 308° |
| 2026-05-08 15:21 | 49.99096 | 14.48536 | 4260 ft | 191 kts | 308° |
| 2026-05-08 15:21 | 49.99892 | 14.46908 | 4092 ft | 186 kts | 308° |
| 2026-05-08 15:21 | 50.00651 | 14.45357 | 3978 ft | 175 kts | 308° |
| 2026-05-08 15:21 | 50.01374 | 14.43880 | 3753 ft | 172 kts | 309° |
| 2026-05-08 15:22 | 50.02092 | 14.42414 | 3523 ft | 170 kts | 309° |
| 2026-05-08 15:22 | 50.02805 | 14.40955 | 3288 ft | 170 kts | 310° |
| 2026-05-08 15:22 | 50.03523 | 14.39485 | 3051 ft | 170 kts | 309° |
| 2026-05-08 15:22 | 50.04233 | 14.38032 | 2822 ft | 170 kts | 309° |
| 2026-05-08 15:23 | 50.04940 | 14.36581 | 2609 ft | 165 kts | 309° |
| 2026-05-08 15:23 | 50.05621 | 14.35185 | 2355 ft | 156 kts | 309° |
| 2026-05-08 15:23 | 50.06253 | 14.33889 | 2229 ft | 145 kts | 309° |
| 2026-05-08 15:23 | 50.06890 | 14.32583 | 1975 ft | 153 kts | 308° |
| 2026-05-08 15:24 | 50.07532 | 14.31267 | 1780 ft | 152 kts | 308° |
| 2026-05-08 15:24 | 50.08154 | 14.29976 | 1577 ft | 150 kts | 308° |
| 2026-05-08 15:24 | 50.08798 | 14.28684 | 1370 ft | 150 kts | 308° |
| 2026-05-08 15:24 | 50.09401 | 14.27442 | 1220 ft | 137 kts | 309° |
| 2026-05-08 15:25 | 50.09832 | 14.26543 | 1209 ft | 72 kts | 307° |
| 2026-05-08 15:25 | 50.10066 | 14.26056 | 1196 ft | 37 kts | 307° |
| 2026-05-08 15:25 | 50.10200 | 14.25785 | 1188 ft | 23 kts | 311° |
| 2026-05-08 15:25 | 50.10310 | 14.25685 | 1183 ft | 11 kts | 339° |
| 2026-05-08 15:26 | 50.10379 | 14.25656 | 1181 ft | 11 kts | 355° |
| 2026-05-08 15:26 | 50.10473 | 14.25676 | 1177 ft | 16 kts | 19° |
| 2026-05-08 15:26 | 50.10560 | 14.25739 | 1175 ft | 3 kts | 32° |
| 2026-05-08 15:26 | 50.10589 | 14.25770 | 1174 ft | 6 kts | 34° |
| 2026-05-08 15:27 | 50.10636 | 14.25820 | 1173 ft | 9 kts | 34° |
| 2026-05-08 15:27 | 50.10700 | 14.25889 | 1171 ft | 13 kts | 34° |
| 2026-05-08 15:27 | 50.10786 | 14.25983 | 1168 ft | 17 kts | 36° |
| 2026-05-08 15:27 | 50.10880 | 14.26082 | 1165 ft | 14 kts | 34° |
| 2026-05-08 15:28 | 50.10970 | 14.26176 | 1164 ft | 8 kts | 35° |
| 2026-05-08 15:28 | 50.10968 | 14.26236 | 1164 ft | 6 kts | 115° |
| 2026-05-08 15:28 | 50.10947 | 14.26284 | 1165 ft | 0 kts | 124° |